createdAt,value
2018-05-15T00:01:36.607Z,99852.25
2018-05-15T00:04:04.089Z,99850.14
2018-05-15T00:06:31.576Z,99844.19
2018-05-15T00:08:59.061Z,99848.28
2018-05-15T00:11:26.530Z,99848.35
2018-05-15T00:13:54.035Z,99859.45
2018-05-15T00:16:21.510Z,99859.24
2018-05-15T00:18:48.998Z,99870.44
2018-05-15T00:21:16.474Z,99869.74
2018-05-15T00:23:43.955Z,99869.92
2018-05-15T00:26:12.086Z,99862.70
2018-05-15T00:28:39.569Z,99872.52
2018-05-15T00:31:07.042Z,99874.43
2018-05-15T00:33:34.530Z,99876.89
2018-05-15T00:36:02.004Z,99869.65
2018-05-15T00:38:29.496Z,99868.98
2018-05-15T00:40:56.957Z,99868.58
2018-05-15T00:43:24.444Z,99870.89
2018-05-15T00:45:51.912Z,99873.77
2018-05-15T00:48:19.392Z,99876.90
2018-05-15T00:50:46.865Z,99880.05
2018-05-15T00:53:14.362Z,99873.51
2018-05-15T00:55:43.751Z,99874.61
2018-05-15T00:58:11.267Z,99875.44
2018-05-15T01:00:38.749Z,99877.88
2018-05-15T01:03:06.236Z,99879.23
2018-05-15T01:05:33.701Z,99878.95
2018-05-15T01:08:01.190Z,99882.77
2018-05-15T01:10:29.507Z,99888.48
2018-05-15T01:12:57.000Z,99889.30
2018-05-15T01:15:24.462Z,99888.19
2018-05-15T01:17:51.965Z,99890.78
2018-05-15T01:20:19.434Z,99889.55
2018-05-15T01:22:46.902Z,99889.30
2018-05-15T01:25:14.388Z,99898.28
2018-05-15T01:27:41.850Z,99891.98
2018-05-15T01:30:09.337Z,99895.41
2018-05-15T01:32:36.806Z,99897.97
2018-05-15T01:35:04.290Z,99894.72
2018-05-15T01:37:31.751Z,99896.89
2018-05-15T01:39:59.233Z,99895.64
2018-05-15T01:42:26.694Z,99887.48
2018-05-15T01:44:54.191Z,99890.30
2018-05-15T01:47:21.678Z,99888.92
2018-05-15T01:49:50.111Z,99887.27
2018-05-15T01:52:17.618Z,99889.88
2018-05-15T01:54:45.114Z,99885.77
2018-05-15T01:57:12.629Z,99890.11
2018-05-15T01:59:40.117Z,99889.83
2018-05-15T02:02:07.582Z,99888.42
2018-05-15T02:04:35.065Z,99883.20
2018-05-15T02:07:02.536Z,99879.41
2018-05-15T02:09:30.034Z,99887.17
2018-05-15T02:11:57.498Z,99890.54
2018-05-15T02:14:24.983Z,99882.38
2018-05-15T02:16:52.455Z,99889.17
2018-05-15T02:19:19.978Z,99890.29
2018-05-15T02:21:47.442Z,99885.69
2018-05-15T02:24:15.082Z,99892.37
2018-05-15T02:26:42.558Z,99887.81
2018-05-15T02:29:10.046Z,99890.11
2018-05-15T02:31:37.521Z,99891.47
2018-05-15T02:34:05.010Z,99895.10
2018-05-15T02:36:32.478Z,99889.20
2018-05-15T02:38:59.964Z,99889.20
2018-05-15T02:41:27.426Z,99891.36
2018-05-15T02:43:54.907Z,99887.64
2018-05-15T02:46:22.430Z,99896.66
2018-05-15T02:48:49.902Z,99893.34
2018-05-15T02:51:17.393Z,99898.65
2018-05-15T02:53:44.858Z,99893.91
2018-05-15T02:56:12.346Z,99894.75
2018-05-15T02:58:39.809Z,99896.35
2018-05-15T03:01:07.294Z,99895.58
2018-05-15T03:03:34.788Z,99902.50
2018-05-15T03:06:02.282Z,99903.02
2018-05-15T03:08:29.745Z,99899.05
2018-05-15T03:10:57.232Z,99896.05
2018-05-15T03:13:24.796Z,99895.05
2018-05-15T03:15:52.282Z,99893.23
2018-05-15T03:18:19.764Z,99900.62
2018-05-15T03:20:47.271Z,99896.21
2018-05-15T03:23:14.740Z,99897.53
2018-05-15T03:25:42.230Z,99901.53
2018-05-15T03:28:09.702Z,99903.37
2018-05-15T03:30:37.189Z,99907.88
2018-05-15T03:33:04.665Z,99905.87
2018-05-15T03:35:32.149Z,99913.66
2018-05-15T03:37:59.626Z,99907.80
2018-05-15T03:40:27.125Z,99907.78
2018-05-15T03:42:54.624Z,99910.80
2018-05-15T03:45:22.125Z,99914.03
2018-05-15T03:47:49.603Z,99914.88
2018-05-15T03:50:17.097Z,99922.46
2018-05-15T03:52:44.575Z,99918.64
2018-05-15T03:55:12.075Z,99930.89
2018-05-15T03:57:39.554Z,99926.15
2018-05-15T04:03:12.733Z,99924.89
2018-05-15T04:05:51.838Z,99927.64
2018-05-15T04:08:19.320Z,99919.02
2018-05-15T04:10:46.878Z,99920.44
2018-05-15T04:13:14.309Z,99924.53
2018-05-15T04:15:43.878Z,99932.02
2018-05-15T04:18:11.358Z,99933.19
2018-05-15T04:20:38.868Z,99940.30
2018-05-15T04:23:06.371Z,99938.79
2018-05-15T04:25:33.967Z,99940.32
2018-05-15T04:28:01.457Z,99938.81
2018-05-15T04:30:28.982Z,99943.80
2018-05-15T04:32:56.466Z,99942.44
2018-05-15T04:35:23.958Z,99946.20
2018-05-15T04:37:51.456Z,99941.84
2018-05-15T04:40:18.937Z,99940.70
2018-05-15T04:42:46.449Z,99942.14
2018-05-15T04:45:13.923Z,99945.44
2018-05-15T04:47:41.433Z,99948.65
2018-05-15T04:50:08.910Z,99953.02
2018-05-15T04:52:36.410Z,99946.12
2018-05-15T04:55:07.658Z,99947.98
2018-05-15T04:57:35.159Z,99946.39
2018-05-15T05:00:02.636Z,99943.72
2018-05-15T05:02:30.134Z,99939.23
2018-05-15T05:04:57.620Z,99948.44
2018-05-15T05:07:25.134Z,99951.78
2018-05-15T05:09:52.610Z,99950.16
2018-05-15T05:12:20.102Z,99944.55
2018-05-15T05:14:47.569Z,99954.08
2018-05-15T05:17:15.070Z,99975.84
2018-05-15T05:19:42.541Z,99979.30
2018-05-15T05:22:10.039Z,99983.39
2018-05-15T05:24:38.025Z,99989.16
2018-05-15T05:27:05.555Z,99986.88
2018-05-15T05:29:33.014Z,100000.89
2018-05-15T05:32:00.533Z,99993.33
2018-05-15T05:34:28.008Z,100000.30
2018-05-15T05:36:55.506Z,99988.08
2018-05-15T05:39:22.993Z,99988.31
2018-05-15T05:41:50.482Z,99985.19
2018-05-15T05:44:17.974Z,99994.69
2018-05-15T05:46:45.461Z,99999.11
2018-05-15T05:49:12.930Z,100001.67
2018-05-15T05:51:40.472Z,100006.98
2018-05-15T05:54:07.944Z,100015.55
2018-05-15T05:56:35.446Z,100014.73
2018-05-15T05:59:02.922Z,100018.51
2018-05-15T06:01:30.418Z,100018.62
2018-05-15T06:03:57.910Z,100019.91
2018-05-15T06:06:25.382Z,100020.30
2018-05-15T06:08:53.321Z,100017.47
2018-05-15T06:11:20.797Z,100018.84
2018-05-15T06:13:48.302Z,100026.32
2018-05-15T06:16:15.781Z,100022.92
2018-05-15T06:18:43.277Z,100028.95
2018-05-15T06:21:10.745Z,100029.73
2018-05-15T06:23:38.246Z,100037.75
2018-05-15T06:26:05.713Z,100035.56
2018-05-15T06:28:33.206Z,100035.15
2018-05-15T06:31:00.675Z,100041.19
2018-05-15T06:33:28.165Z,100039.42
2018-05-15T06:35:55.645Z,100040.18
2018-05-15T06:38:23.130Z,100039.97
2018-05-15T06:40:50.604Z,100039.14
2018-05-15T06:43:18.177Z,100045.92
2018-05-15T06:45:45.653Z,100054.00
2018-05-15T06:48:13.147Z,100056.02
2018-05-15T06:50:40.626Z,100057.11
2018-05-15T06:53:13.829Z,100056.84
2018-05-15T06:55:41.302Z,100052.47
2018-05-15T06:58:08.815Z,100049.78
2018-05-15T07:00:36.286Z,100059.72
2018-05-15T07:03:03.791Z,100056.28
2018-05-15T07:05:31.262Z,100059.03
2018-05-15T07:07:58.753Z,100054.95
2018-05-15T07:10:26.234Z,100055.02
2018-05-15T07:12:53.743Z,100055.95
2018-05-15T07:15:21.234Z,100055.47
2018-05-15T07:17:48.730Z,100057.59
2018-05-15T07:20:16.423Z,100065.13
2018-05-15T07:22:43.920Z,100066.14
2018-05-15T07:25:11.390Z,100066.88
2018-05-15T07:27:38.901Z,100070.84
2018-05-15T07:30:06.381Z,100068.67
2018-05-15T07:32:33.851Z,100064.38
2018-05-15T07:35:01.346Z,100063.16
2018-05-15T07:37:28.847Z,100061.78
2018-05-15T07:39:56.334Z,100065.03
2018-05-15T07:42:23.805Z,100067.59
2018-05-15T07:44:51.301Z,100065.80
2018-05-15T07:47:18.768Z,100075.77
2018-05-15T07:49:46.269Z,100071.16
2018-05-15T07:52:13.744Z,100072.32
2018-05-15T07:54:41.233Z,100077.11
2018-05-15T07:57:08.720Z,100072.85
2018-05-15T07:59:36.220Z,100078.33
2018-05-15T08:02:03.695Z,100074.23
2018-05-15T08:04:31.196Z,100076.58
2018-05-15T08:06:58.665Z,100078.34
2018-05-15T08:09:26.148Z,100076.80
2018-05-15T08:11:53.623Z,100075.02
2018-05-15T08:14:21.116Z,100079.97
2018-05-15T08:16:48.587Z,100081.39
2018-05-15T08:19:16.078Z,100078.80
2018-05-15T08:21:43.555Z,100082.88
2018-05-15T08:24:11.886Z,100071.86
2018-05-15T08:26:39.370Z,100078.34
2018-05-15T08:29:06.894Z,100068.23
2018-05-15T08:31:34.562Z,100075.91
2018-05-15T08:34:02.083Z,100072.23
2018-05-15T08:36:29.593Z,100071.39
2018-05-15T08:38:57.138Z,100077.27
2018-05-15T08:41:25.083Z,100070.45
2018-05-15T08:43:52.558Z,100078.96
2018-05-15T08:46:20.023Z,100071.72
2018-05-15T08:48:47.982Z,100074.20
2018-05-15T08:51:16.482Z,100074.41
2018-05-15T08:53:44.462Z,100076.91
2018-05-15T08:56:12.096Z,100082.92
2018-05-15T08:58:39.598Z,100081.48
2018-05-15T09:01:07.381Z,100081.25
2018-05-15T09:03:34.889Z,100078.09
2018-05-15T09:06:03.194Z,100079.20
2018-05-15T09:08:31.002Z,100079.75
2018-05-15T09:10:59.281Z,100077.81
2018-05-15T09:13:26.762Z,100075.69
2018-05-15T09:15:54.765Z,100074.23
2018-05-15T09:18:22.572Z,100082.25
2018-05-15T09:20:50.066Z,100078.81
2018-05-15T09:23:17.618Z,100076.23
2018-05-15T09:25:45.528Z,100075.27
2018-05-15T09:28:13.035Z,100077.10
2018-05-15T09:30:40.593Z,100076.70
2018-05-15T09:33:08.058Z,100079.22
2018-05-15T09:35:35.569Z,100078.91
2018-05-15T09:38:03.410Z,100084.33
2018-05-15T09:40:31.123Z,100077.07
2018-05-15T09:42:58.644Z,100079.15
2018-05-15T09:45:26.199Z,100080.03
2018-05-15T09:47:53.913Z,100076.38
2018-05-15T09:50:21.397Z,100083.20
2018-05-15T09:52:49.121Z,100079.49
2018-05-15T09:55:17.084Z,100081.62
2018-05-15T09:57:44.667Z,100084.18
2018-05-15T10:00:13.177Z,100079.48
2018-05-15T10:02:41.573Z,100081.11
2018-05-15T10:05:09.462Z,100079.64
2018-05-15T10:07:37.217Z,100081.50
2018-05-15T10:10:04.677Z,100080.84
2018-05-15T10:12:32.178Z,100080.14
2018-05-15T10:14:59.698Z,100083.28
2018-05-15T10:17:27.605Z,100083.71
2018-05-15T10:19:55.235Z,100071.50
2018-05-15T10:22:22.718Z,100073.44
2018-05-15T10:24:50.203Z,100068.02
2018-05-15T10:27:17.683Z,100074.88
2018-05-15T10:29:45.202Z,100063.48
2018-05-15T10:32:12.759Z,100062.09
2018-05-15T10:34:40.227Z,100058.95
2018-05-15T10:37:07.710Z,100062.02
2018-05-15T10:39:35.197Z,100065.85
2018-05-15T10:42:02.958Z,100059.08
2018-05-15T10:44:30.418Z,100074.19
2018-05-15T10:46:57.911Z,100053.52
2018-05-15T10:49:25.815Z,100059.18
2018-05-15T10:51:53.574Z,100064.71
2018-05-15T10:54:21.786Z,100058.32
2018-05-15T10:56:49.299Z,100058.47
2018-05-15T10:59:16.987Z,100059.14
2018-05-15T11:01:44.517Z,100054.16
2018-05-15T11:04:12.035Z,100054.02
2018-05-15T11:06:39.771Z,100053.91
2018-05-15T11:09:07.370Z,100051.06
2018-05-15T11:11:35.213Z,100049.03
2018-05-15T11:14:03.417Z,100044.84
2018-05-15T11:16:30.894Z,100045.84
2018-05-15T11:18:58.358Z,100040.55
2018-05-15T11:21:37.965Z,100042.62
2018-05-15T11:27:08.218Z,100034.94
2018-05-15T11:29:35.685Z,100033.09
2018-05-15T11:32:03.178Z,100039.14
2018-05-15T11:34:30.650Z,100038.69
2018-05-15T11:36:58.135Z,100037.03
2018-05-15T11:39:25.594Z,100038.73
2018-05-15T11:41:53.161Z,100035.92
2018-05-15T11:44:20.570Z,100038.13
2018-05-15T11:46:48.056Z,100035.52
2018-05-15T11:49:16.189Z,100040.19
2018-05-15T11:51:43.722Z,100044.28
2018-05-15T11:54:10.502Z,100041.41
2018-05-15T11:56:37.977Z,100040.90
2018-05-15T11:59:05.450Z,100033.11
2018-05-15T12:01:32.946Z,100040.11
2018-05-15T12:04:00.471Z,100034.61
2018-05-15T12:06:27.954Z,100036.00
2018-05-15T12:08:55.378Z,100033.23
2018-05-15T12:11:22.874Z,100036.77
2018-05-15T12:13:50.330Z,100039.91
2018-05-15T12:16:17.817Z,100030.33
2018-05-15T12:18:45.303Z,100025.00
2018-05-15T12:21:12.815Z,100035.77
2018-05-15T12:23:40.296Z,100024.84
2018-05-15T12:26:07.762Z,100026.58
2018-05-15T12:28:35.261Z,100027.06
2018-05-15T12:31:02.722Z,100027.91
2018-05-15T12:33:30.206Z,100022.08
2018-05-15T12:35:57.669Z,100025.84
2018-05-15T12:38:25.155Z,100021.06
2018-05-15T12:40:52.626Z,100027.67
2018-05-15T12:43:20.108Z,100023.95
2018-05-15T12:45:47.574Z,100026.23
2018-05-15T12:48:15.079Z,100027.25
2018-05-15T12:50:42.553Z,100022.83
2018-05-15T12:53:10.038Z,100023.31
2018-05-15T12:55:37.502Z,100021.19
2018-05-15T12:58:04.979Z,100017.41
2018-05-15T13:00:32.434Z,100017.66
2018-05-15T13:03:00.405Z,100015.73
2018-05-15T13:05:27.876Z,100016.16
2018-05-15T13:07:55.362Z,100020.29
2018-05-15T13:10:22.818Z,100019.00
2018-05-15T13:12:50.303Z,100014.00
2018-05-15T13:15:17.997Z,100015.95
2018-05-15T13:17:45.478Z,100009.58
2018-05-15T13:20:12.987Z,100015.47
2018-05-15T13:22:40.470Z,100014.25
2018-05-15T13:25:07.936Z,100006.16
2018-05-15T13:27:35.425Z,100003.19
2018-05-15T13:30:02.895Z,100002.61
2018-05-15T13:32:30.389Z,100005.42
2018-05-15T13:34:57.853Z,99998.55
2018-05-15T13:37:25.334Z,99994.97
2018-05-15T13:39:52.785Z,99992.25
2018-05-15T13:42:20.334Z,99993.78
2018-05-15T13:44:47.825Z,99995.38
2018-05-15T13:47:15.294Z,99987.93
2018-05-15T13:49:42.774Z,99988.05
2018-05-15T13:52:10.229Z,99986.34
2018-05-15T13:54:37.705Z,99980.27
2018-05-15T13:57:05.163Z,99977.83
2018-05-15T13:59:32.633Z,99979.20
2018-05-15T14:02:00.093Z,99972.20
2018-05-15T14:04:27.576Z,99971.78
2018-05-15T14:06:55.040Z,99971.56
2018-05-15T14:09:22.647Z,99970.16
2018-05-15T14:11:50.119Z,99967.96
2018-05-15T14:14:17.589Z,99963.22
2018-05-15T14:16:45.053Z,99966.14
2018-05-15T14:19:12.541Z,99969.41
2018-05-15T14:21:40.029Z,99966.69
2018-05-15T14:24:07.514Z,99965.41
2018-05-15T14:26:34.986Z,99964.34
2018-05-15T14:29:02.466Z,99961.73
2018-05-15T14:31:30.000Z,99958.81
2018-05-15T14:33:57.414Z,99955.44
2018-05-15T14:36:24.879Z,99954.23
2018-05-15T14:38:52.370Z,99960.24
2018-05-15T14:41:31.839Z,99955.94
2018-05-15T14:43:59.322Z,99949.81
2018-05-15T14:46:26.887Z,99947.72
2018-05-15T14:48:54.362Z,99950.89
2018-05-15T14:51:37.009Z,99949.17
2018-05-15T14:54:06.227Z,99947.05
2018-05-15T14:56:33.686Z,99943.93
2018-05-15T14:59:01.166Z,99945.78
2018-05-15T15:01:28.621Z,99947.77
2018-05-15T15:03:56.380Z,99949.31
2018-05-15T15:06:23.843Z,99940.63
2018-05-15T15:08:51.333Z,99943.99
2018-05-15T15:11:18.795Z,99938.00
2018-05-15T15:13:46.310Z,99935.09
2018-05-15T15:16:13.781Z,99934.59
2018-05-15T15:18:41.256Z,99936.64
2018-05-15T15:21:09.067Z,99935.73
2018-05-15T15:23:37.460Z,99928.69
2018-05-15T15:26:04.914Z,99918.75
2018-05-15T15:28:32.374Z,99917.75
2018-05-15T15:30:59.849Z,99910.66
2018-05-15T15:33:28.209Z,99910.86
2018-05-15T15:35:56.056Z,99916.41
2018-05-15T15:38:23.515Z,99911.50
2018-05-15T15:40:51.007Z,99903.25
2018-05-15T15:43:18.471Z,99909.58
2018-05-15T15:45:45.955Z,99905.84
2018-05-15T15:48:13.423Z,99904.34
2018-05-15T15:50:41.125Z,99905.39
2018-05-15T15:53:09.527Z,99906.51
2018-05-15T15:55:37.005Z,99907.40
2018-05-15T15:58:04.511Z,99900.39
2018-05-15T16:00:32.989Z,99908.00
2018-05-15T16:03:00.461Z,99908.16
2018-05-15T16:05:28.350Z,99905.44
2018-05-15T16:07:56.126Z,99902.70
2018-05-15T16:10:24.309Z,99892.54
2018-05-15T16:12:52.229Z,99902.55
2018-05-15T16:15:19.713Z,99902.97
2018-05-15T16:17:47.224Z,99893.78
2018-05-15T16:20:14.744Z,99900.23
2018-05-15T16:22:43.225Z,99901.44
2018-05-15T16:25:10.746Z,99900.41
2018-05-15T16:27:38.207Z,99901.88
2018-05-15T16:30:05.738Z,99902.97
2018-05-15T16:32:33.207Z,99900.45
2018-05-15T16:35:00.991Z,99904.45
2018-05-15T16:37:28.698Z,99906.53
2018-05-15T16:39:56.616Z,99904.69
2018-05-15T16:42:24.342Z,99895.30
2018-05-15T16:44:53.909Z,99898.13
2018-05-15T16:47:23.039Z,99895.58
2018-05-15T16:49:50.511Z,99903.80
2018-05-15T16:52:18.270Z,99896.91
2018-05-15T16:54:45.777Z,99898.08
2018-05-15T16:57:13.333Z,99889.00
2018-05-15T16:59:40.821Z,99896.15
2018-05-15T17:02:08.557Z,99892.83
2018-05-15T17:04:37.059Z,99888.55
2018-05-15T17:07:04.538Z,99891.81
2018-05-15T17:09:32.225Z,99893.19
2018-05-15T17:11:59.787Z,99893.33
2018-05-15T17:14:28.434Z,99890.09
2018-05-15T17:16:55.932Z,99888.71
2018-05-15T17:19:23.732Z,99885.33
2018-05-15T17:21:51.225Z,99889.20
2018-05-15T17:24:18.725Z,99885.34
2018-05-15T17:26:46.599Z,99889.77
2018-05-15T17:29:14.469Z,99889.00
2018-05-15T17:31:41.969Z,99887.16
2018-05-15T17:34:09.490Z,99891.84
2018-05-15T17:36:37.479Z,99895.31
2018-05-15T17:39:04.976Z,99890.09
2018-05-15T17:41:32.751Z,99890.84
2018-05-15T17:44:00.240Z,99893.33
2018-05-15T17:46:28.055Z,99894.73
2018-05-15T17:48:55.566Z,99900.27
2018-05-15T17:51:23.482Z,99899.59
2018-05-15T17:53:51.251Z,99899.16
2018-05-15T17:56:19.033Z,99905.34
2018-05-15T17:58:46.609Z,99901.00
2018-05-15T18:01:14.114Z,99906.21
2018-05-15T18:03:41.602Z,99902.84
2018-05-15T18:06:09.141Z,99907.80
2018-05-15T18:08:37.049Z,99909.41
2018-05-15T18:11:05.059Z,99910.08
2018-05-15T18:13:32.858Z,99911.80
2018-05-15T18:16:00.660Z,99908.16
2018-05-15T18:18:28.138Z,99912.55
2018-05-15T18:20:55.625Z,99904.45
2018-05-15T18:23:23.163Z,99910.31
2018-05-15T18:25:50.650Z,99908.81
2018-05-15T18:28:18.209Z,99909.81
2018-05-15T18:30:45.958Z,99913.55
2018-05-15T18:33:13.506Z,99918.23
2018-05-15T18:35:41.170Z,99915.94
2018-05-15T18:38:08.926Z,99922.33
2018-05-15T18:40:36.606Z,99916.35
2018-05-15T18:43:04.094Z,99917.80
2018-05-15T18:45:31.636Z,99922.92
2018-05-15T18:47:59.095Z,99912.33
2018-05-15T18:50:26.858Z,99917.13
2018-05-15T18:52:54.393Z,99919.34
2018-05-15T18:55:21.887Z,99919.75
2018-05-15T18:57:49.966Z,99933.73
2018-05-15T19:00:17.885Z,99934.41
2018-05-15T19:02:45.858Z,99928.10
2018-05-15T19:05:13.343Z,99936.80
2018-05-15T19:07:40.825Z,99929.34
2018-05-15T19:10:08.793Z,99935.59
2018-05-15T19:12:36.705Z,99941.61
2018-05-15T19:15:05.410Z,99938.52
2018-05-15T19:17:33.010Z,99943.03
2018-05-15T19:20:00.513Z,99947.49
2018-05-15T19:22:28.446Z,99945.03
2018-05-15T19:24:55.934Z,99950.98
2018-05-15T19:27:23.730Z,99957.94
2018-05-15T19:29:51.277Z,99956.80
2018-05-15T19:32:18.758Z,99961.70
2018-05-15T19:34:51.770Z,99957.17
2018-05-15T19:37:19.487Z,99955.35
2018-05-15T19:39:47.026Z,99957.39
2018-05-15T19:42:14.867Z,99964.33
2018-05-15T19:44:42.783Z,99958.44
2018-05-15T19:47:10.671Z,99959.44
2018-05-15T19:49:38.150Z,99961.83
2018-05-15T19:52:05.870Z,99965.59
2018-05-15T19:54:33.345Z,99966.39
2018-05-15T19:57:01.282Z,99964.22
2018-05-15T19:59:28.753Z,99972.84
2018-05-15T20:01:56.774Z,99972.09
2018-05-15T20:04:24.869Z,99969.64
2018-05-15T20:06:52.330Z,99970.39
2018-05-15T20:09:19.821Z,99971.41
2018-05-15T20:11:47.522Z,99981.41
2018-05-15T20:14:15.000Z,99975.85
2018-05-15T20:16:42.469Z,99985.56
2018-05-15T20:19:09.949Z,99985.69
2018-05-15T20:21:37.435Z,99987.30
2018-05-15T20:24:04.923Z,99985.02
2018-05-15T20:26:32.382Z,99985.63
2018-05-15T20:28:59.860Z,99982.90
2018-05-15T20:31:27.334Z,99981.88
2018-05-15T20:33:54.821Z,99977.23
2018-05-15T20:36:22.278Z,99982.14
2018-05-15T20:38:50.547Z,99981.73
2018-05-15T20:41:18.019Z,99981.14
2018-05-15T20:43:45.510Z,99984.97
2018-05-15T20:46:12.966Z,99985.20
2018-05-15T20:48:40.453Z,99986.83
2018-05-15T20:51:07.911Z,99982.84
2018-05-15T20:53:35.390Z,99985.47
2018-05-15T20:56:02.850Z,99977.77
2018-05-15T20:58:30.405Z,99980.10
2018-05-15T21:00:57.822Z,99974.91
2018-05-15T21:03:25.303Z,99977.91
2018-05-15T21:05:52.761Z,99981.65
2018-05-15T21:08:20.291Z,99976.03
2018-05-15T21:10:47.758Z,99974.49
2018-05-15T21:13:15.225Z,99971.92
2018-05-15T21:15:42.717Z,99970.83
2018-05-15T21:18:10.177Z,99974.48
2018-05-15T21:20:37.645Z,99968.02
2018-05-15T21:23:05.117Z,99968.95
2018-05-15T21:25:32.598Z,99970.58
2018-05-15T21:28:00.063Z,99969.36
2018-05-15T21:30:27.545Z,99962.30
2018-05-15T21:32:55.035Z,99958.45
2018-05-15T21:35:22.526Z,99953.95
2018-05-15T21:37:50.518Z,99956.50
2018-05-15T21:40:18.079Z,99958.90
2018-05-15T21:42:45.542Z,99955.48
2018-05-15T21:45:13.013Z,99948.95
2018-05-15T21:47:40.474Z,99948.17
2018-05-15T21:50:07.950Z,99947.84
2018-05-15T21:52:35.504Z,99954.59
2018-05-15T21:55:03.005Z,99955.52
2018-05-15T21:57:30.476Z,99959.72
2018-05-15T21:59:58.689Z,99947.50
2018-05-15T22:02:26.153Z,99945.58
2018-05-15T22:04:54.743Z,99947.11
2018-05-15T22:07:22.205Z,99946.71
2018-05-15T22:09:49.694Z,99950.13
2018-05-15T22:12:29.006Z,99952.34
2018-05-15T22:15:08.265Z,99948.47
2018-05-15T22:17:47.519Z,99943.06
2018-05-15T22:20:26.725Z,99941.91
2018-05-15T22:22:54.557Z,99939.13
2018-05-15T22:25:22.053Z,99940.17
2018-05-15T22:27:50.481Z,99937.61
2018-05-15T22:30:17.978Z,99937.97
2018-05-15T22:32:45.466Z,99934.94
2018-05-15T22:35:12.946Z,99932.89
2018-05-15T22:37:40.413Z,99933.47
2018-05-15T22:40:07.897Z,99929.14
2018-05-15T22:42:35.371Z,99927.34
2018-05-15T22:45:02.851Z,99928.62
2018-05-15T22:47:30.333Z,99926.22
2018-05-15T22:49:57.801Z,99927.23
2018-05-15T22:52:25.294Z,99926.03
2018-05-15T22:54:52.766Z,99924.86
2018-05-15T22:57:20.261Z,99923.98
2018-05-15T22:59:47.734Z,99915.28
2018-05-15T23:02:15.231Z,99917.69
2018-05-15T23:04:42.706Z,99920.86
2018-05-15T23:07:10.193Z,99915.30
2018-05-15T23:09:37.662Z,99908.09
2018-05-15T23:12:05.154Z,99907.53
2018-05-15T23:14:32.615Z,99905.00
2018-05-15T23:17:01.566Z,99899.20
2018-05-15T23:19:29.034Z,99895.27
2018-05-15T23:21:56.525Z,99897.70
2018-05-15T23:24:23.986Z,99895.95
2018-05-15T23:26:51.514Z,99896.36
2018-05-15T23:29:19.095Z,99891.45
2018-05-15T23:31:46.566Z,99888.41
2018-05-15T23:34:14.033Z,99892.50
2018-05-15T23:36:41.536Z,99886.61
2018-05-15T23:39:09.007Z,99892.56
2018-05-15T23:41:36.489Z,99893.08
2018-05-15T23:44:03.959Z,99887.28
2018-05-15T23:46:31.450Z,99888.89
2018-05-15T23:48:58.921Z,99884.66
2018-05-15T23:51:26.403Z,99881.61
2018-05-15T23:53:53.865Z,99881.41
2018-05-15T23:56:21.349Z,99884.02
2018-05-15T23:58:48.819Z,99878.42
